createdAt,value
2023-03-15T00:01:21.028Z,5.49
2023-03-15T00:03:48.394Z,5.31
2023-03-15T00:06:16.595Z,5.20
2023-03-15T00:08:47.731Z,5.31
2023-03-15T00:11:17.009Z,5.02
2023-03-15T00:13:45.241Z,4.85
2023-03-15T00:16:17.745Z,5.02
2023-03-15T00:18:48.120Z,4.96
2023-03-15T00:21:15.740Z,5.01
2023-03-15T00:23:43.071Z,5.09
2023-03-15T00:26:10.761Z,5.01
2023-03-15T00:28:38.661Z,4.87
2023-03-15T00:31:16.039Z,4.88
2023-03-15T00:33:45.806Z,4.68
2023-03-15T00:36:13.813Z,4.63
2023-03-15T00:38:44.296Z,4.80
2023-03-15T00:41:14.618Z,4.94
2023-03-15T00:43:43.121Z,4.74
2023-03-15T00:46:11.793Z,4.61
2023-03-15T00:48:39.327Z,4.51
2023-03-15T00:51:19.224Z,4.78
2023-03-15T00:53:47.502Z,5.00
2023-03-15T00:56:18.475Z,4.98
2023-03-15T00:58:45.786Z,4.99
2023-03-15T01:01:16.225Z,5.01
2023-03-15T01:03:44.116Z,4.76
2023-03-15T01:06:14.661Z,4.74
2023-03-15T01:08:42.803Z,4.61
2023-03-15T01:11:15.215Z,4.45
2023-03-15T01:13:43.286Z,4.53
2023-03-15T01:16:13.395Z,4.39
2023-03-15T01:18:41.412Z,4.48
2023-03-15T01:21:10.765Z,4.64
2023-03-15T01:23:38.814Z,4.66
2023-03-15T01:26:10.323Z,4.59
2023-03-15T01:28:37.571Z,4.44
2023-03-15T01:31:05.850Z,4.41
2023-03-15T01:33:34.250Z,4.23
2023-03-15T01:36:04.916Z,4.48
2023-03-15T01:38:34.145Z,4.46
2023-03-15T01:41:01.875Z,4.53
2023-03-15T01:43:34.993Z,4.22
2023-03-15T01:46:02.635Z,4.07
2023-03-15T01:48:38.572Z,4.44
2023-03-15T01:51:14.256Z,4.12
2023-03-15T01:53:46.610Z,4.31
2023-03-15T01:56:15.691Z,4.63
2023-03-15T01:58:46.476Z,4.43
2023-03-15T02:01:16.583Z,4.47
2023-03-15T02:03:51.384Z,4.30
2023-03-15T02:06:21.199Z,4.36
2023-03-15T02:09:02.688Z,4.08
2023-03-15T02:11:35.700Z,4.27
2023-03-15T02:14:05.672Z,4.13
2023-03-15T02:16:35.724Z,4.11
2023-03-15T02:19:19.993Z,4.07
2023-03-15T02:22:33.256Z,3.99
2023-03-15T02:25:26.957Z,4.09
2023-03-15T02:27:56.155Z,4.03
2023-03-15T02:30:23.548Z,4.19
2023-03-15T02:32:51.293Z,4.21
2023-03-15T02:35:26.975Z,3.86
2023-03-15T02:37:54.825Z,4.04
2023-03-15T02:40:24.824Z,3.81
2023-03-15T02:42:56.339Z,3.98
2023-03-15T02:45:26.340Z,3.90
2023-03-15T02:47:54.239Z,3.85
2023-03-15T02:50:21.742Z,3.83
2023-03-15T02:52:49.997Z,3.82
2023-03-15T02:55:19.402Z,3.76
2023-03-15T02:57:48.581Z,3.71
2023-03-15T03:00:16.578Z,3.48
2023-03-15T03:02:47.368Z,3.53
2023-03-15T03:05:16.866Z,3.40
2023-03-15T03:07:44.913Z,3.61
2023-03-15T03:10:15.864Z,3.69
2023-03-15T03:12:53.716Z,3.57
2023-03-15T03:15:27.584Z,3.58
2023-03-15T03:17:55.252Z,3.42
2023-03-15T03:20:24.487Z,3.33
2023-03-15T03:22:52.021Z,3.52
2023-03-15T03:25:19.425Z,3.47
2023-03-15T03:27:48.540Z,3.43
2023-03-15T03:30:16.554Z,3.52
2023-03-15T03:32:49.859Z,3.39
2023-03-15T03:35:17.271Z,3.27
2023-03-15T03:37:44.944Z,3.35
2023-03-15T03:40:22.352Z,3.37
2023-03-15T03:42:49.961Z,3.63
2023-03-15T03:45:19.654Z,3.46
2023-03-15T03:47:51.859Z,3.49
2023-03-15T03:50:19.233Z,3.60
2023-03-15T03:52:46.924Z,3.62
2023-03-15T03:55:25.286Z,3.66
2023-03-15T03:57:54.104Z,3.50
2023-03-15T04:00:38.055Z,3.36
2023-03-15T04:03:06.839Z,3.35
2023-03-15T04:05:36.764Z,3.59
2023-03-15T04:08:04.915Z,3.67
2023-03-15T04:10:37.242Z,3.68
2023-03-15T04:13:04.754Z,3.67
2023-03-15T04:15:31.993Z,3.60
2023-03-15T04:18:00.364Z,3.37
2023-03-15T04:20:34.633Z,3.39
2023-03-15T04:23:03.194Z,3.31
2023-03-15T04:25:58.116Z,3.49
2023-03-15T04:28:44.112Z,3.39
2023-03-15T04:31:37.695Z,3.32
2023-03-15T04:34:28.458Z,3.40
2023-03-15T04:37:06.114Z,3.58
2023-03-15T04:39:59.861Z,3.41
2023-03-15T04:42:46.597Z,3.41
2023-03-15T04:45:32.166Z,3.74
2023-03-15T04:48:18.013Z,3.68
2023-03-15T04:51:04.211Z,3.57
2023-03-15T04:53:50.531Z,3.61
2023-03-15T04:56:37.467Z,3.42
2023-03-15T04:59:39.871Z,3.42
2023-03-15T05:02:30.820Z,3.29
2023-03-15T05:05:12.528Z,3.11
2023-03-15T05:07:54.241Z,3.19
2023-03-15T05:10:31.578Z,3.11
2023-03-15T05:13:09.797Z,3.11
2023-03-15T05:15:55.741Z,3.16
2023-03-15T05:18:38.729Z,3.08
2023-03-15T05:21:32.843Z,2.85
2023-03-15T05:24:18.793Z,3.19
2023-03-15T05:27:06.273Z,3.16
2023-03-15T05:29:54.105Z,3.59
2023-03-15T05:32:39.609Z,3.80
2023-03-15T05:35:32.346Z,3.78
2023-03-15T05:38:18.064Z,4.01
2023-03-15T05:41:03.232Z,3.97
2023-03-15T05:43:46.590Z,4.12
2023-03-15T05:46:32.537Z,4.27
2023-03-15T05:48:59.928Z,4.17
2023-03-15T05:51:38.709Z,4.62
2023-03-15T05:54:44.314Z,5.01
2023-03-15T05:57:28.074Z,6.32
2023-03-15T06:00:15.250Z,7.03
2023-03-15T06:02:44.102Z,6.04
2023-03-15T06:05:37.412Z,5.78
2023-03-15T06:08:08.521Z,5.77
2023-03-15T06:10:39.651Z,5.34
2023-03-15T06:13:09.596Z,5.32
2023-03-15T06:15:37.106Z,5.11
2023-03-15T06:18:05.779Z,5.16
2023-03-15T06:20:33.381Z,7.06
2023-03-15T06:23:07.697Z,10.34
2023-03-15T06:25:45.389Z,11.39
2023-03-15T06:28:13.529Z,13.44
2023-03-15T06:30:45.951Z,14.60
2023-03-15T06:33:13.482Z,14.87
2023-03-15T06:35:41.119Z,13.53
2023-03-15T06:38:10.451Z,14.53
2023-03-15T06:40:39.392Z,15.47
2023-03-15T06:43:07.245Z,15.78
2023-03-15T06:45:35.594Z,16.66
2023-03-15T06:48:04.903Z,16.84
2023-03-15T06:50:46.096Z,14.34
2023-03-15T06:53:15.251Z,13.78
2023-03-15T06:55:42.990Z,14.02
2023-03-15T06:58:10.969Z,15.76
2023-03-15T07:00:38.385Z,17.71
2023-03-15T07:03:05.987Z,16.31
2023-03-15T07:05:33.471Z,17.80
2023-03-15T07:08:01.140Z,18.81
2023-03-15T07:10:28.423Z,18.60
2023-03-15T07:12:55.973Z,19.00
2023-03-15T07:15:23.423Z,18.80
2023-03-15T07:17:50.949Z,17.50
2023-03-15T07:20:18.263Z,16.14
2023-03-15T07:22:45.845Z,15.84
2023-03-15T07:25:13.245Z,17.54
2023-03-15T07:27:41.244Z,17.75
2023-03-15T07:30:09.898Z,17.63
2023-03-15T07:32:39.145Z,19.09
2023-03-15T07:35:06.830Z,19.43
2023-03-15T07:37:34.418Z,19.90
2023-03-15T07:40:09.820Z,17.61
2023-03-15T07:42:37.610Z,17.90
2023-03-15T07:45:06.414Z,17.25
2023-03-15T07:47:34.196Z,16.20
2023-03-15T07:50:01.555Z,16.30
2023-03-15T07:52:29.118Z,17.51
2023-03-15T07:54:56.339Z,17.63
2023-03-15T07:57:23.903Z,15.18
2023-03-15T07:59:53.453Z,17.20
2023-03-15T08:02:21.086Z,19.20
2023-03-15T08:04:50.826Z,18.63
2023-03-15T08:07:18.323Z,18.20
2023-03-15T08:09:46.414Z,15.57
2023-03-15T08:12:14.229Z,13.48
2023-03-15T08:14:41.474Z,13.21
2023-03-15T08:17:13.169Z,15.80
2023-03-15T08:19:40.384Z,16.81
2023-03-15T08:22:08.329Z,15.27
2023-03-15T08:24:35.992Z,17.30
2023-03-15T08:27:05.118Z,16.46
2023-03-15T08:29:32.516Z,17.21
2023-03-15T08:32:00.277Z,18.15
2023-03-15T08:34:27.564Z,16.04
2023-03-15T08:36:55.196Z,14.94
2023-03-15T08:39:24.109Z,12.59
2023-03-15T08:41:51.688Z,10.18
2023-03-15T08:44:18.953Z,10.51
2023-03-15T08:46:46.751Z,12.40
2023-03-15T08:49:14.071Z,13.86
2023-03-15T08:51:41.650Z,14.22
2023-03-15T08:54:08.997Z,15.60
2023-03-15T08:56:36.572Z,14.63
2023-03-15T08:59:03.784Z,17.86
2023-03-15T09:01:31.373Z,17.68
2023-03-15T09:03:58.871Z,18.75
2023-03-15T09:06:26.425Z,19.03
2023-03-15T09:08:54.013Z,19.95
2023-03-15T09:11:22.886Z,17.86
2023-03-15T09:13:50.229Z,13.30
2023-03-15T09:16:18.156Z,13.42
2023-03-15T09:18:45.710Z,14.67
2023-03-15T09:21:13.260Z,15.85
2023-03-15T09:23:40.617Z,16.84
2023-03-15T09:26:08.169Z,16.53
2023-03-15T09:28:35.432Z,15.72
2023-03-15T09:31:06.826Z,16.29
2023-03-15T09:33:34.138Z,14.71
2023-03-15T09:36:01.756Z,12.96
2023-03-15T09:38:29.170Z,15.74
2023-03-15T09:40:59.033Z,15.76
2023-03-15T09:43:35.347Z,17.12
2023-03-15T09:46:26.611Z,18.60
2023-03-15T09:49:19.294Z,19.14
2023-03-15T09:51:59.851Z,19.97
2023-03-15T09:54:44.544Z,18.99
2023-03-15T09:57:19.713Z,18.53
2023-03-15T09:59:52.388Z,17.63
2023-03-15T10:02:24.775Z,14.92
2023-03-15T10:04:58.884Z,16.03
2023-03-15T10:07:26.516Z,16.73
2023-03-15T10:09:54.585Z,16.77
2023-03-15T10:12:29.611Z,15.48
2023-03-15T10:15:21.721Z,14.21
2023-03-15T10:17:58.291Z,11.93
2023-03-15T10:20:29.625Z,14.53
2023-03-15T10:23:09.196Z,13.54
2023-03-15T10:25:37.681Z,11.92
2023-03-15T10:28:08.290Z,12.01
2023-03-15T10:30:37.864Z,11.48
2023-03-15T10:33:26.503Z,11.70
2023-03-15T10:36:04.375Z,11.14
2023-03-15T10:38:38.731Z,11.26
2023-03-15T10:41:07.850Z,13.62
2023-03-15T10:43:40.117Z,14.28
2023-03-15T10:46:10.266Z,15.23
2023-03-15T10:48:41.294Z,14.81
2023-03-15T10:51:30.267Z,13.85
2023-03-15T10:54:04.719Z,11.74
2023-03-15T10:56:37.494Z,11.20
2023-03-15T10:59:17.224Z,11.08
2023-03-15T11:01:48.270Z,10.78
2023-03-15T11:04:17.587Z,10.39
2023-03-15T11:06:49.602Z,9.98
2023-03-15T11:09:22.848Z,9.61
2023-03-15T11:11:55.902Z,8.64
2023-03-15T11:14:23.593Z,8.97
2023-03-15T11:16:55.528Z,8.52
2023-03-15T11:19:28.126Z,8.81
2023-03-15T11:21:56.851Z,8.94
2023-03-15T11:24:30.725Z,8.06
2023-03-15T11:27:01.798Z,9.38
2023-03-15T11:29:35.593Z,9.13
2023-03-15T11:32:16.681Z,9.25
2023-03-15T11:34:53.361Z,9.38
2023-03-15T11:37:28.756Z,9.79
2023-03-15T11:40:15.558Z,10.14
2023-03-15T11:42:49.680Z,9.92
2023-03-15T11:45:34.392Z,10.27
2023-03-15T11:48:43.014Z,9.97
2023-03-15T11:51:13.214Z,9.69
2023-03-15T11:54:04.358Z,9.98
2023-03-15T11:56:44.171Z,9.73
2023-03-15T11:59:15.615Z,9.13
2023-03-15T12:01:46.231Z,9.05
2023-03-15T12:04:25.341Z,8.84
2023-03-15T12:06:54.806Z,9.12
2023-03-15T12:09:33.809Z,8.90
2023-03-15T12:12:07.167Z,8.88
2023-03-15T12:14:36.498Z,8.49
2023-03-15T12:17:28.936Z,8.47
2023-03-15T12:20:01.923Z,8.92
2023-03-15T12:22:33.953Z,8.84
2023-03-15T12:25:54.738Z,9.19
2023-03-15T12:28:30.462Z,8.74
2023-03-15T12:31:02.062Z,8.97
2023-03-15T12:33:32.311Z,8.53
2023-03-15T12:36:03.230Z,8.42
2023-03-15T12:38:43.154Z,8.06
2023-03-15T12:41:34.829Z,8.25
2023-03-15T12:44:18.852Z,8.50
2023-03-15T12:46:46.137Z,8.45
2023-03-15T12:49:27.473Z,8.06
2023-03-15T12:51:59.783Z,8.65
2023-03-15T12:54:45.542Z,8.32
2023-03-15T12:57:18.960Z,7.89
2023-03-15T12:59:59.245Z,8.38
2023-03-15T13:02:41.625Z,8.24
2023-03-15T13:05:10.713Z,8.33
2023-03-15T13:07:58.241Z,8.47
2023-03-15T13:10:31.168Z,8.62
2023-03-15T13:13:21.838Z,8.38
2023-03-15T13:16:18.643Z,7.71
2023-03-15T13:19:05.509Z,7.35
2023-03-15T13:21:36.692Z,7.61
2023-03-15T13:24:14.659Z,7.42
2023-03-15T13:26:55.824Z,7.61
2023-03-15T13:29:29.586Z,7.52
2023-03-15T13:32:19.148Z,7.64
2023-03-15T13:34:47.649Z,7.92
2023-03-15T13:37:18.146Z,7.74
2023-03-15T13:40:08.828Z,8.33
2023-03-15T13:42:40.934Z,7.98
2023-03-15T13:45:16.058Z,7.75
2023-03-15T13:47:45.961Z,7.53
2023-03-15T13:50:21.539Z,7.53
2023-03-15T13:52:49.880Z,7.52
2023-03-15T13:55:22.607Z,7.71
2023-03-15T13:57:56.993Z,7.84
2023-03-15T14:00:25.180Z,7.78
2023-03-15T14:03:00.829Z,7.86
2023-03-15T14:05:32.495Z,7.87
2023-03-15T14:08:05.909Z,7.88
2023-03-15T14:10:38.343Z,8.09
2023-03-15T14:13:32.385Z,8.09
2023-03-15T14:15:59.603Z,7.71
2023-03-15T14:18:32.551Z,7.74
2023-03-15T14:21:15.604Z,7.51
2023-03-15T14:23:48.404Z,7.55
2023-03-15T14:26:21.838Z,7.16
2023-03-15T14:28:59.243Z,7.63
2023-03-15T14:31:32.453Z,7.75
2023-03-15T14:34:18.883Z,7.61
2023-03-15T14:36:47.692Z,7.20
2023-03-15T14:39:24.833Z,7.44
2023-03-15T14:41:52.382Z,7.16
2023-03-15T14:44:20.456Z,6.97
2023-03-15T14:46:49.129Z,6.44
2023-03-15T14:49:24.808Z,6.64
2023-03-15T14:51:59.007Z,6.62
2023-03-15T14:54:28.665Z,6.38
2023-03-15T14:56:56.282Z,5.92
2023-03-15T14:59:24.050Z,5.99
2023-03-15T15:01:54.867Z,6.16
2023-03-15T15:04:23.249Z,6.06
2023-03-15T15:06:51.270Z,5.96
2023-03-15T15:09:23.497Z,6.05
2023-03-15T15:11:51.374Z,6.14
2023-03-15T15:14:19.923Z,6.13
2023-03-15T15:16:47.306Z,5.99
2023-03-15T15:19:15.587Z,5.91
2023-03-15T15:21:43.804Z,6.03
2023-03-15T15:24:19.825Z,5.98
2023-03-15T15:26:47.373Z,6.19
2023-03-15T15:29:16.641Z,5.89
2023-03-15T15:31:45.085Z,6.18
2023-03-15T15:34:12.965Z,6.02
2023-03-15T15:36:43.075Z,5.98
2023-03-15T15:39:22.146Z,6.12
2023-03-15T15:41:50.211Z,6.17
2023-03-15T15:44:22.439Z,5.90
2023-03-15T15:46:49.561Z,6.07
2023-03-15T15:49:18.180Z,6.09
2023-03-15T15:51:47.284Z,6.09
2023-03-15T15:54:18.481Z,5.96
2023-03-15T15:56:50.922Z,5.99
2023-03-15T15:59:18.870Z,6.04
2023-03-15T16:02:00.064Z,5.60
2023-03-15T16:04:28.857Z,5.47
2023-03-15T16:06:59.749Z,5.33
2023-03-15T16:09:30.142Z,5.64
2023-03-15T16:11:58.455Z,5.44
2023-03-15T16:14:26.048Z,5.50
2023-03-15T16:16:53.295Z,5.12
2023-03-15T16:19:20.934Z,5.04
2023-03-15T16:21:51.702Z,4.91
2023-03-15T16:24:23.836Z,4.89
2023-03-15T16:26:51.538Z,4.91
2023-03-15T16:29:23.085Z,4.83
2023-03-15T16:31:51.287Z,4.73
2023-03-15T16:34:19.728Z,4.58
2023-03-15T16:36:49.717Z,4.51
2023-03-15T16:39:17.919Z,4.56
2023-03-15T16:41:45.189Z,4.53
2023-03-15T16:44:17.467Z,4.26
2023-03-15T16:46:44.710Z,4.27
2023-03-15T16:49:15.340Z,4.09
2023-03-15T16:51:47.556Z,4.07
2023-03-15T16:54:24.536Z,4.10
2023-03-15T16:56:59.528Z,4.06
2023-03-15T16:59:28.421Z,3.94
2023-03-15T17:01:55.676Z,3.87
2023-03-15T17:04:23.287Z,3.78
2023-03-15T17:09:24.613Z,3.57
2023-03-15T17:11:52.548Z,3.52
2023-03-15T17:14:30.080Z,3.57
2023-03-15T17:16:57.605Z,3.56
2023-03-15T17:19:25.583Z,3.55
2023-03-15T17:21:53.996Z,3.56
2023-03-15T17:24:22.136Z,3.52
2023-03-15T17:26:49.469Z,3.36
2023-03-15T17:29:17.170Z,3.56
2023-03-15T17:31:47.197Z,3.70
2023-03-15T17:34:14.861Z,3.47
2023-03-15T17:36:42.243Z,3.35
2023-03-15T17:39:16.138Z,3.40
2023-03-15T17:41:46.976Z,3.34
2023-03-15T17:44:14.730Z,3.40
2023-03-15T17:46:43.099Z,3.35
2023-03-15T17:49:13.361Z,3.45
2023-03-15T17:51:40.715Z,3.44
2023-03-15T17:54:17.876Z,3.47
2023-03-15T17:56:45.170Z,3.24
2023-03-15T17:59:13.613Z,3.15
2023-03-15T18:01:46.555Z,3.11
2023-03-15T18:04:15.208Z,3.07
2023-03-15T18:06:42.963Z,2.85
2023-03-15T18:09:15.420Z,2.76
2023-03-15T18:11:43.989Z,2.67
2023-03-15T18:14:13.796Z,2.53
2023-03-15T18:16:42.039Z,2.43
2023-03-15T18:19:09.972Z,2.65
2023-03-15T18:21:37.380Z,2.66
2023-03-15T18:24:05.164Z,2.86
2023-03-15T18:26:32.416Z,3.13
2023-03-15T18:29:00.110Z,3.22
2023-03-15T18:31:27.415Z,3.34
2023-03-15T18:33:55.067Z,3.34
2023-03-15T18:36:22.534Z,3.39
2023-03-15T18:38:50.426Z,3.62
2023-03-15T18:41:20.925Z,3.52
2023-03-15T18:43:52.157Z,3.43
2023-03-15T18:46:22.632Z,3.58
2023-03-15T18:48:53.523Z,3.38
2023-03-15T18:51:23.289Z,3.16
2023-03-15T18:53:51.003Z,2.96
2023-03-15T18:56:26.603Z,2.83
2023-03-15T18:58:54.875Z,2.51
2023-03-15T19:01:24.457Z,2.56
2023-03-15T19:03:53.264Z,2.53
2023-03-15T19:06:21.611Z,2.48
2023-03-15T19:08:53.430Z,2.62
2023-03-15T19:11:24.084Z,2.58
2023-03-15T19:13:51.728Z,2.72
2023-03-15T19:16:20.741Z,2.81
2023-03-15T19:18:49.727Z,2.97
2023-03-15T19:21:18.899Z,3.10
2023-03-15T19:23:47.127Z,3.24
2023-03-15T19:26:14.499Z,3.40
2023-03-15T19:28:42.389Z,3.29
2023-03-15T19:31:10.266Z,3.08
2023-03-15T19:33:38.649Z,3.05
2023-03-15T19:36:06.309Z,2.92
2023-03-15T19:38:34.180Z,2.78
2023-03-15T19:41:06.325Z,2.58
2023-03-15T19:43:34.565Z,2.36
2023-03-15T19:46:01.908Z,2.27
2023-03-15T19:48:29.486Z,2.19
2023-03-15T19:50:56.705Z,1.99
2023-03-15T19:53:25.754Z,1.89
2023-03-15T19:55:52.994Z,2.07
2023-03-15T19:58:21.074Z,2.09
2023-03-15T20:00:54.261Z,2.18
2023-03-15T20:03:21.751Z,2.38
2023-03-15T20:05:49.010Z,2.69
2023-03-15T20:08:16.666Z,2.86
2023-03-15T20:10:44.138Z,2.90
2023-03-15T20:13:11.785Z,2.92
2023-03-15T20:15:39.104Z,2.94
2023-03-15T20:18:08.264Z,2.93
2023-03-15T20:20:35.486Z,2.91
2023-03-15T20:23:03.739Z,2.84
2023-03-15T20:25:31.610Z,2.89
2023-03-15T20:27:59.138Z,2.71
2023-03-15T20:30:26.478Z,2.64
2023-03-15T20:32:54.759Z,2.52
2023-03-15T20:35:22.289Z,2.57
2023-03-15T20:37:53.089Z,2.64
2023-03-15T20:40:20.939Z,2.59
2023-03-15T20:42:48.611Z,2.42
2023-03-15T20:45:15.829Z,2.34
2023-03-15T20:47:43.356Z,2.29
2023-03-15T20:50:12.023Z,2.22
2023-03-15T20:52:40.971Z,2.21
2023-03-15T20:55:09.554Z,2.38
2023-03-15T20:57:37.216Z,2.42
2023-03-15T21:00:12.437Z,2.60
2023-03-15T21:02:40.469Z,2.56
2023-03-15T21:05:09.865Z,2.47
2023-03-15T21:07:37.482Z,2.42
2023-03-15T21:10:05.560Z,2.46
2023-03-15T21:12:33.080Z,2.49
2023-03-15T21:15:01.800Z,2.52
2023-03-15T21:17:29.485Z,2.53
2023-03-15T21:19:57.189Z,2.34
2023-03-15T21:22:24.807Z,2.39
2023-03-15T21:24:55.915Z,2.34
2023-03-15T21:27:26.565Z,2.33
2023-03-15T21:29:54.177Z,2.36
2023-03-15T21:32:21.844Z,2.26
2023-03-15T21:34:49.078Z,2.18
2023-03-15T21:37:16.692Z,2.18
2023-03-15T21:39:43.946Z,2.24
2023-03-15T21:42:11.865Z,2.19
2023-03-15T21:44:39.193Z,2.29
2023-03-15T21:47:06.792Z,2.16
2023-03-15T21:49:34.047Z,2.06
2023-03-15T21:52:02.508Z,1.85
2023-03-15T21:54:29.835Z,1.83
2023-03-15T21:56:57.422Z,1.65
2023-03-15T21:59:28.070Z,1.32
2023-03-15T22:01:57.254Z,1.53
2023-03-15T22:04:25.035Z,1.45
2023-03-15T22:06:53.053Z,1.51
2023-03-15T22:09:21.063Z,1.58
2023-03-15T22:11:49.058Z,1.90
2023-03-15T22:14:16.338Z,1.99
2023-03-15T22:16:43.944Z,2.10
2023-03-15T22:19:11.219Z,2.05
2023-03-15T22:21:38.774Z,2.10
2023-03-15T22:24:06.362Z,1.99
2023-03-15T22:26:34.312Z,1.88
2023-03-15T22:29:01.519Z,1.83
2023-03-15T22:31:31.898Z,1.65
2023-03-15T22:33:59.318Z,1.57
2023-03-15T22:36:26.834Z,1.40
2023-03-15T22:38:54.097Z,1.42
2023-03-15T22:41:21.673Z,1.44
2023-03-15T22:43:49.006Z,1.50
2023-03-15T22:46:16.628Z,1.63
2023-03-15T22:48:43.904Z,1.67
2023-03-15T22:51:15.149Z,1.61
2023-03-15T22:53:42.703Z,1.67
2023-03-15T22:56:10.536Z,1.52
2023-03-15T22:58:38.105Z,1.73
2023-03-15T23:01:05.868Z,1.61
2023-03-15T23:03:33.173Z,1.63
2023-03-15T23:06:01.174Z,1.42
2023-03-15T23:08:28.648Z,1.63
2023-03-15T23:10:59.700Z,1.56
2023-03-15T23:13:27.005Z,1.57
2023-03-15T23:15:54.670Z,1.57
2023-03-15T23:18:22.439Z,1.83
2023-03-15T23:20:50.005Z,1.68
2023-03-15T23:23:17.665Z,1.51
2023-03-15T23:25:46.033Z,1.43
2023-03-15T23:28:14.013Z,1.31
2023-03-15T23:30:45.712Z,1.38
2023-03-15T23:33:13.563Z,1.21
2023-03-15T23:35:42.158Z,1.33
2023-03-15T23:38:09.526Z,1.38
2023-03-15T23:40:37.544Z,1.30
2023-03-15T23:43:05.971Z,1.52
2023-03-15T23:45:34.158Z,1.43
2023-03-15T23:48:02.681Z,1.44
2023-03-15T23:50:30.585Z,1.44
2023-03-15T23:52:58.241Z,1.61
2023-03-15T23:55:25.897Z,1.57
2023-03-15T23:57:53.314Z,1.51
